KRKW/RKW METAR and TAF weather

Enter ICAO airport designator
Station Type Date Time Source
KRKW METAR 2020/04/04 12:15 UTC NOAA

KRKW 041215Z AUTO 03003KT 10SM BKN080 OVC110 12/03 A3003 RMK A01


Station Type Date Time Source
KRKW Decoded METAR 2020/04/04 12:15 UTC NOAA

Station name not available
Apr 04, 2020 - 08:15 AM EDT / 2020.04.04 1215 UTC
Wind: from the NNE (030 degrees) at 3 MPH (3 KT):0
Visibility: 10 mile(s):0
Sky conditions: overcast
Temperature: 53 F (12 C)
Dew Point: 37 F (3 C)
Relative Humidity: 54%
Pressure (altimeter): 30.03 in. Hg (1016 hPa)
ob: KRKW 041215Z AUTO 03003KT 10SM BKN080 OVC110 12/03 A3003 RMK A01
cycle: 12

Station Type Date Time Source
KRKW TAF 2009/08/31 19:50 UTC NOAA

METAR KRKW 311950Z AUTO VRB05KT 10SM CLR 25/13 A3010
RMK AO1 T02500133 $

Example: see airport list